sensor_id;sensor_type;location;lat;lon;timestamp;P1;durP1;ratioP1;P2;durP2;ratioP2
7150;SDS011;3617;48.836;9.172;2024-01-10T00:00:06;3.97;;;3.33;;
7150;SDS011;3617;48.836;9.172;2024-01-10T00:02:32;7.87;;;4.13;;
7150;SDS011;3617;48.836;9.172;2024-01-10T00:04:58;5.33;;;2.97;;
7150;SDS011;3617;48.836;9.172;2024-01-10T00:07:24;5.10;;;3.97;;
7150;SDS011;3617;48.836;9.172;2024-01-10T00:09:50;3.93;;;3.53;;
7150;SDS011;3617;48.836;9.172;2024-01-10T00:12:16;3.53;;;2.87;;
7150;SDS011;3617;48.836;9.172;2024-01-10T00:14:42;6.33;;;2.83;;
7150;SDS011;3617;48.836;9.172;2024-01-10T00:17:08;4.10;;;2.70;;
7150;SDS011;3617;48.836;9.172;2024-01-10T00:19:34;10.27;;;3.43;;
7150;SDS011;3617;48.836;9.172;2024-01-10T00:22:00;3.33;;;3.03;;
7150;SDS011;3617;48.836;9.172;2024-01-10T00:24:26;3.43;;;3.13;;
7150;SDS011;3617;48.836;9.172;2024-01-10T00:26:52;8.07;;;2.97;;
7150;SDS011;3617;48.836;9.172;2024-01-10T00:29:18;3.90;;;2.73;;
7150;SDS011;3617;48.836;9.172;2024-01-10T00:31:44;5.60;;;3.27;;
7150;SDS011;3617;48.836;9.172;2024-01-10T00:34:10;3.90;;;2.83;;
7150;SDS011;3617;48.836;9.172;2024-01-10T00:36:36;3.00;;;2.70;;
7150;SDS011;3617;48.836;9.172;2024-01-10T00:39:02;5.63;;;3.30;;
7150;SDS011;3617;48.836;9.172;2024-01-10T00:41:28;4.47;;;3.03;;
7150;SDS011;3617;48.836;9.172;2024-01-10T00:43:54;6.50;;;3.23;;
7150;SDS011;3617;48.836;9.172;2024-01-10T00:46:20;4.00;;;3.33;;
7150;SDS011;3617;48.836;9.172;2024-01-10T00:48:46;2.87;;;2.67;;
7150;SDS011;3617;48.836;9.172;2024-01-10T00:51:12;5.50;;;2.63;;
7150;SDS011;3617;48.836;9.172;2024-01-10T00:53:38;3.20;;;2.90;;
7150;SDS011;3617;48.836;9.172;2024-01-10T00:56:04;5.70;;;3.07;;
7150;SDS011;3617;48.836;9.172;2024-01-10T00:58:30;3.43;;;2.67;;
7150;SDS011;3617;48.836;9.172;2024-01-10T01:00:56;4.00;;;3.37;;
7150;SDS011;3617;48.836;9.172;2024-01-10T01:03:22;3.00;;;2.70;;
7150;SDS011;3617;48.836;9.172;2024-01-10T01:05:48;2.77;;;2.57;;
7150;SDS011;3617;48.836;9.172;2024-01-10T01:08:14;8.00;;;3.37;;
7150;SDS011;3617;48.836;9.172;2024-01-10T01:10:40;3.93;;;2.57;;
7150;SDS011;3617;48.836;9.172;2024-01-10T01:13:06;4.80;;;3.97;;
7150;SDS011;3617;48.836;9.172;2024-01-10T01:15:32;4.93;;;3.17;;
7150;SDS011;3617;48.836;9.172;2024-01-10T01:17:58;3.07;;;2.63;;
7150;SDS011;3617;48.836;9.172;2024-01-10T01:20:24;4.43;;;3.03;;
7150;SDS011;3617;48.836;9.172;2024-01-10T01:22:50;4.07;;;3.00;;
7150;SDS011;3617;48.836;9.172;2024-01-10T01:25:17;3.30;;;3.00;;
7150;SDS011;3617;48.836;9.172;2024-01-10T01:27:43;3.03;;;2.83;;
7150;SDS011;3617;48.836;9.172;2024-01-10T01:30:09;4.43;;;2.80;;
7150;SDS011;3617;48.836;9.172;2024-01-10T01:32:36;4.27;;;2.53;;
7150;SDS011;3617;48.836;9.172;2024-01-10T01:35:02;2.73;;;2.30;;
7150;SDS011;3617;48.836;9.172;2024-01-10T01:37:28;2.10;;;2.00;;
7150;SDS011;3617;48.836;9.172;2024-01-10T01:39:54;2.17;;;1.83;;
7150;SDS011;3617;48.836;9.172;2024-01-10T01:42:20;5.97;;;2.80;;
7150;SDS011;3617;48.836;9.172;2024-01-10T01:44:46;2.90;;;2.13;;
7150;SDS011;3617;48.836;9.172;2024-01-10T01:47:12;3.30;;;2.77;;
7150;SDS011;3617;48.836;9.172;2024-01-10T01:49:38;6.93;;;4.13;;
7150;SDS011;3617;48.836;9.172;2024-01-10T01:52:04;3.87;;;3.03;;
7150;SDS011;3617;48.836;9.172;2024-01-10T01:54:30;6.33;;;3.70;;
7150;SDS011;3617;48.836;9.172;2024-01-10T01:56:57;5.00;;;3.43;;
7150;SDS011;3617;48.836;9.172;2024-01-10T01:59:23;3.13;;;2.83;;
7150;SDS011;3617;48.836;9.172;2024-01-10T02:01:50;3.60;;;2.60;;
7150;SDS011;3617;48.836;9.172;2024-01-10T02:04:16;3.57;;;3.27;;
7150;SDS011;3617;48.836;9.172;2024-01-10T02:06:43;3.83;;;3.17;;
7150;SDS011;3617;48.836;9.172;2024-01-10T02:09:09;2.70;;;2.33;;
7150;SDS011;3617;48.836;9.172;2024-01-10T02:11:35;4.53;;;3.27;;
7150;SDS011;3617;48.836;9.172;2024-01-10T02:14:01;2.83;;;2.63;;
7150;SDS011;3617;48.836;9.172;2024-01-10T02:16:27;9.60;;;4.03;;
7150;SDS011;3617;48.836;9.172;2024-01-10T02:18:53;7.90;;;4.37;;
7150;SDS011;3617;48.836;9.172;2024-01-10T02:21:22;5.47;;;2.57;;
7150;SDS011;3617;48.836;9.172;2024-01-10T02:23:48;6.73;;;3.20;;
7150;SDS011;3617;48.836;9.172;2024-01-10T02:26:15;6.17;;;3.40;;
7150;SDS011;3617;48.836;9.172;2024-01-10T02:28:41;4.60;;;2.77;;
7150;SDS011;3617;48.836;9.172;2024-01-10T02:31:07;4.53;;;3.37;;
7150;SDS011;3617;48.836;9.172;2024-01-10T02:33:33;2.53;;;2.20;;
7150;SDS011;3617;48.836;9.172;2024-01-10T02:35:59;6.40;;;3.20;;
7150;SDS011;3617;48.836;9.172;2024-01-10T02:38:25;3.60;;;3.03;;
7150;SDS011;3617;48.836;9.172;2024-01-10T02:40:52;3.07;;;2.67;;
7150;SDS011;3617;48.836;9.172;2024-01-10T02:43:18;3.03;;;2.70;;
7150;SDS011;3617;48.836;9.172;2024-01-10T02:45:44;3.10;;;2.83;;
7150;SDS011;3617;48.836;9.172;2024-01-10T02:48:10;3.90;;;3.47;;
7150;SDS011;3617;48.836;9.172;2024-01-10T02:50:36;5.43;;;3.13;;
7150;SDS011;3617;48.836;9.172;2024-01-10T02:53:03;4.07;;;2.63;;
7150;SDS011;3617;48.836;9.172;2024-01-10T02:55:29;4.57;;;3.67;;
7150;SDS011;3617;48.836;9.172;2024-01-10T02:57:55;2.93;;;1.90;;
7150;SDS011;3617;48.836;9.172;2024-01-10T03:00:21;5.13;;;3.10;;
7150;SDS011;3617;48.836;9.172;2024-01-10T03:02:47;5.80;;;2.93;;
7150;SDS011;3617;48.836;9.172;2024-01-10T03:05:13;3.73;;;3.30;;
7150;SDS011;3617;48.836;9.172;2024-01-10T03:07:39;3.57;;;2.63;;
7150;SDS011;3617;48.836;9.172;2024-01-10T03:10:05;3.83;;;3.17;;
7150;SDS011;3617;48.836;9.172;2024-01-10T03:12:31;3.87;;;3.23;;
7150;SDS011;3617;48.836;9.172;2024-01-10T03:14:57;3.37;;;3.07;;
7150;SDS011;3617;48.836;9.172;2024-01-10T03:17:23;4.97;;;3.50;;
7150;SDS011;3617;48.836;9.172;2024-01-10T03:19:49;6.43;;;3.93;;
7150;SDS011;3617;48.836;9.172;2024-01-10T03:22:16;4.37;;;3.73;;
7150;SDS011;3617;48.836;9.172;2024-01-10T03:24:42;3.33;;;2.60;;
7150;SDS011;3617;48.836;9.172;2024-01-10T03:27:08;4.60;;;3.33;;
7150;SDS011;3617;48.836;9.172;2024-01-10T03:29:34;3.13;;;2.87;;
7150;SDS011;3617;48.836;9.172;2024-01-10T03:32:00;5.27;;;3.23;;
7150;SDS011;3617;48.836;9.172;2024-01-10T03:34:26;3.10;;;2.70;;
7150;SDS011;3617;48.836;9.172;2024-01-10T03:36:52;4.30;;;2.77;;
7150;SDS011;3617;48.836;9.172;2024-01-10T03:39:18;2.57;;;2.37;;
7150;SDS011;3617;48.836;9.172;2024-01-10T03:41:45;5.53;;;2.77;;
7150;SDS011;3617;48.836;9.172;2024-01-10T03:44:12;4.00;;;3.10;;
7150;SDS011;3617;48.836;9.172;2024-01-10T03:46:38;4.83;;;4.37;;
7150;SDS011;3617;48.836;9.172;2024-01-10T03:49:04;3.20;;;2.90;;
7150;SDS011;3617;48.836;9.172;2024-01-10T03:51:29;7.27;;;4.20;;
7150;SDS011;3617;48.836;9.172;2024-01-10T03:53:55;3.90;;;3.00;;
7150;SDS011;3617;48.836;9.172;2024-01-10T03:56:21;7.17;;;3.50;;
7150;SDS011;3617;48.836;9.172;2024-01-10T03:58:47;9.87;;;2.93;;
7150;SDS011;3617;48.836;9.172;2024-01-10T04:01:13;3.03;;;2.73;;
7150;SDS011;3617;48.836;9.172;2024-01-10T04:03:39;4.00;;;2.50;;
7150;SDS011;3617;48.836;9.172;2024-01-10T04:06:07;4.30;;;2.93;;
7150;SDS011;3617;48.836;9.172;2024-01-10T04:08:33;3.53;;;2.47;;
7150;SDS011;3617;48.836;9.172;2024-01-10T04:10:59;4.57;;;2.77;;
7150;SDS011;3617;48.836;9.172;2024-01-10T04:13:25;6.80;;;3.73;;
7150;SDS011;3617;48.836;9.172;2024-01-10T04:15:51;7.50;;;3.87;;
7150;SDS011;3617;48.836;9.172;2024-01-10T04:18:17;6.50;;;2.80;;
7150;SDS011;3617;48.836;9.172;2024-01-10T04:20:44;3.30;;;2.80;;
7150;SDS011;3617;48.836;9.172;2024-01-10T04:23:11;9.00;;;2.90;;
7150;SDS011;3617;48.836;9.172;2024-01-10T04:25:37;3.87;;;3.33;;
7150;SDS011;3617;48.836;9.172;2024-01-10T04:28:04;4.43;;;3.47;;
7150;SDS011;3617;48.836;9.172;2024-01-10T04:30:30;2.53;;;2.37;;
7150;SDS011;3617;48.836;9.172;2024-01-10T04:32:56;4.27;;;2.77;;
7150;SDS011;3617;48.836;9.172;2024-01-10T04:35:22;5.83;;;3.27;;
7150;SDS011;3617;48.836;9.172;2024-01-10T04:37:48;3.13;;;2.83;;
7150;SDS011;3617;48.836;9.172;2024-01-10T04:40:14;3.03;;;2.73;;
7150;SDS011;3617;48.836;9.172;2024-01-10T04:42:39;2.90;;;2.57;;
7150;SDS011;3617;48.836;9.172;2024-01-10T04:45:05;4.53;;;3.03;;
7150;SDS011;3617;48.836;9.172;2024-01-10T04:47:32;2.27;;;2.10;;
7150;SDS011;3617;48.836;9.172;2024-01-10T04:49:58;7.13;;;4.40;;
7150;SDS011;3617;48.836;9.172;2024-01-10T04:52:24;4.97;;;3.03;;
7150;SDS011;3617;48.836;9.172;2024-01-10T04:54:50;2.27;;;2.10;;
7150;SDS011;3617;48.836;9.172;2024-01-10T04:57:16;3.63;;;2.70;;
7150;SDS011;3617;48.836;9.172;2024-01-10T04:59:42;7.47;;;3.90;;
7150;SDS011;3617;48.836;9.172;2024-01-10T05:02:08;7.60;;;2.83;;
7150;SDS011;3617;48.836;9.172;2024-01-10T05:04:35;3.37;;;3.00;;
7150;SDS011;3617;48.836;9.172;2024-01-10T05:07:01;2.87;;;2.43;;
7150;SDS011;3617;48.836;9.172;2024-01-10T05:09:27;8.40;;;3.87;;
7150;SDS011;3617;48.836;9.172;2024-01-10T05:11:53;3.33;;;2.53;;
7150;SDS011;3617;48.836;9.172;2024-01-10T05:14:19;3.43;;;2.80;;
7150;SDS011;3617;48.836;9.172;2024-01-10T05:16:46;3.07;;;2.77;;
7150;SDS011;3617;48.836;9.172;2024-01-10T05:19:15;9.07;;;3.07;;
7150;SDS011;3617;48.836;9.172;2024-01-10T05:21:41;5.07;;;3.30;;
7150;SDS011;3617;48.836;9.172;2024-01-10T05:24:07;4.20;;;3.80;;
7150;SDS011;3617;48.836;9.172;2024-01-10T05:26:33;3.77;;;2.87;;
7150;SDS011;3617;48.836;9.172;2024-01-10T05:28:58;3.83;;;2.33;;
7150;SDS011;3617;48.836;9.172;2024-01-10T05:31:24;3.90;;;3.40;;
7150;SDS011;3617;48.836;9.172;2024-01-10T05:33:50;5.90;;;3.83;;
7150;SDS011;3617;48.836;9.172;2024-01-10T05:36:18;4.27;;;3.13;;
7150;SDS011;3617;48.836;9.172;2024-01-10T05:38:44;9.73;;;4.07;;
7150;SDS011;3617;48.836;9.172;2024-01-10T05:41:10;3.23;;;2.93;;
7150;SDS011;3617;48.836;9.172;2024-01-10T05:43:35;3.00;;;2.67;;
7150;SDS011;3617;48.836;9.172;2024-01-10T05:46:01;6.13;;;4.40;;
7150;SDS011;3617;48.836;9.172;2024-01-10T05:48:29;5.40;;;3.37;;
7150;SDS011;3617;48.836;9.172;2024-01-10T05:50:55;5.77;;;4.03;;
7150;SDS011;3617;48.836;9.172;2024-01-10T05:53:23;3.23;;;2.90;;
7150;SDS011;3617;48.836;9.172;2024-01-10T05:55:49;3.47;;;2.40;;
7150;SDS011;3617;48.836;9.172;2024-01-10T05:58:16;8.83;;;3.83;;
7150;SDS011;3617;48.836;9.172;2024-01-10T06:00:42;3.23;;;2.93;;
7150;SDS011;3617;48.836;9.172;2024-01-10T06:03:08;6.77;;;3.17;;
7150;SDS011;3617;48.836;9.172;2024-01-10T06:05:34;3.73;;;2.33;;
7150;SDS011;3617;48.836;9.172;2024-01-10T06:08:01;4.67;;;3.10;;
7150;SDS011;3617;48.836;9.172;2024-01-10T06:10:29;3.33;;;2.93;;
7150;SDS011;3617;48.836;9.172;2024-01-10T06:12:55;4.37;;;2.57;;
7150;SDS011;3617;48.836;9.172;2024-01-10T06:15:21;4.20;;;3.00;;
7150;SDS011;3617;48.836;9.172;2024-01-10T06:17:47;4.07;;;3.43;;
7150;SDS011;3617;48.836;9.172;2024-01-10T06:20:14;4.30;;;3.13;;
7150;SDS011;3617;48.836;9.172;2024-01-10T06:22:41;3.97;;;3.57;;
7150;SDS011;3617;48.836;9.172;2024-01-10T06:25:07;2.47;;;2.27;;
7150;SDS011;3617;48.836;9.172;2024-01-10T06:27:32;7.67;;;3.97;;
7150;SDS011;3617;48.836;9.172;2024-01-10T06:29:58;5.03;;;2.30;;
7150;SDS011;3617;48.836;9.172;2024-01-10T06:32:24;3.40;;;2.93;;
7150;SDS011;3617;48.836;9.172;2024-01-10T06:34:50;5.27;;;3.27;;
7150;SDS011;3617;48.836;9.172;2024-01-10T06:37:18;7.03;;;2.70;;
7150;SDS011;3617;48.836;9.172;2024-01-10T06:39:43;2.60;;;2.40;;
7150;SDS011;3617;48.836;9.172;2024-01-10T06:42:10;6.03;;;2.77;;
7150;SDS011;3617;48.836;9.172;2024-01-10T06:44:37;3.47;;;3.17;;
7150;SDS011;3617;48.836;9.172;2024-01-10T06:47:03;4.27;;;2.80;;
7150;SDS011;3617;48.836;9.172;2024-01-10T06:49:29;3.00;;;2.50;;
7150;SDS011;3617;48.836;9.172;2024-01-10T06:51:55;5.37;;;3.57;;
7150;SDS011;3617;48.836;9.172;2024-01-10T06:54:21;4.73;;;2.73;;
7150;SDS011;3617;48.836;9.172;2024-01-10T06:56:47;5.00;;;3.60;;
7150;SDS011;3617;48.836;9.172;2024-01-10T06:59:13;2.33;;;2.13;;
7150;SDS011;3617;48.836;9.172;2024-01-10T07:01:39;3.37;;;2.77;;
7150;SDS011;3617;48.836;9.172;2024-01-10T07:04:05;4.17;;;2.90;;
7150;SDS011;3617;48.836;9.172;2024-01-10T07:06:31;3.27;;;2.97;;
7150;SDS011;3617;48.836;9.172;2024-01-10T07:08:57;6.53;;;3.57;;
7150;SDS011;3617;48.836;9.172;2024-01-10T07:11:23;3.63;;;3.27;;
7150;SDS011;3617;48.836;9.172;2024-01-10T07:13:51;4.90;;;2.63;;
7150;SDS011;3617;48.836;9.172;2024-01-10T07:16:17;7.20;;;4.00;;
7150;SDS011;3617;48.836;9.172;2024-01-10T07:18:43;4.40;;;2.90;;
7150;SDS011;3617;48.836;9.172;2024-01-10T07:21:11;2.87;;;2.67;;
7150;SDS011;3617;48.836;9.172;2024-01-10T07:23:37;4.70;;;3.40;;
7150;SDS011;3617;48.836;9.172;2024-01-10T07:26:06;4.30;;;3.30;;
7150;SDS011;3617;48.836;9.172;2024-01-10T07:28:32;7.13;;;3.57;;
7150;SDS011;3617;48.836;9.172;2024-01-10T07:30:58;4.07;;;2.80;;
7150;SDS011;3617;48.836;9.172;2024-01-10T07:33:27;8.87;;;3.47;;
7150;SDS011;3617;48.836;9.172;2024-01-10T07:35:55;4.70;;;3.27;;
7150;SDS011;3617;48.836;9.172;2024-01-10T07:38:21;7.63;;;5.07;;
7150;SDS011;3617;48.836;9.172;2024-01-10T07:40:47;6.53;;;4.07;;
7150;SDS011;3617;48.836;9.172;2024-01-10T07:43:13;4.03;;;3.20;;
7150;SDS011;3617;48.836;9.172;2024-01-10T07:45:40;3.00;;;2.80;;
7150;SDS011;3617;48.836;9.172;2024-01-10T07:48:06;2.80;;;2.60;;
7150;SDS011;3617;48.836;9.172;2024-01-10T07:50:32;6.70;;;2.97;;
7150;SDS011;3617;48.836;9.172;2024-01-10T07:52:58;6.27;;;3.90;;
7150;SDS011;3617;48.836;9.172;2024-01-10T07:55:26;5.60;;;3.03;;
7150;SDS011;3617;48.836;9.172;2024-01-10T07:57:54;4.00;;;2.90;;
7150;SDS011;3617;48.836;9.172;2024-01-10T08:00:20;3.23;;;2.97;;
7150;SDS011;3617;48.836;9.172;2024-01-10T08:02:47;3.60;;;3.10;;
7150;SDS011;3617;48.836;9.172;2024-01-10T08:05:15;5.70;;;2.80;;
7150;SDS011;3617;48.836;9.172;2024-01-10T08:07:41;7.27;;;3.53;;
7150;SDS011;3617;48.836;9.172;2024-01-10T08:10:07;4.83;;;3.37;;
7150;SDS011;3617;48.836;9.172;2024-01-10T08:12:38;5.33;;;4.23;;
7150;SDS011;3617;48.836;9.172;2024-01-10T08:15:04;6.30;;;4.23;;
7150;SDS011;3617;48.836;9.172;2024-01-10T08:17:31;9.90;;;5.27;;
7150;SDS011;3617;48.836;9.172;2024-01-10T08:19:58;4.03;;;3.73;;
7150;SDS011;3617;48.836;9.172;2024-01-10T08:22:26;9.27;;;4.37;;
7150;SDS011;3617;48.836;9.172;2024-01-10T08:24:52;4.63;;;2.93;;
7150;SDS011;3617;48.836;9.172;2024-01-10T08:27:18;4.90;;;3.77;;
7150;SDS011;3617;48.836;9.172;2024-01-10T08:29:44;6.13;;;3.23;;
7150;SDS011;3617;48.836;9.172;2024-01-10T08:32:11;6.57;;;4.27;;
7150;SDS011;3617;48.836;9.172;2024-01-10T08:34:37;4.37;;;3.63;;
7150;SDS011;3617;48.836;9.172;2024-01-10T08:37:03;4.97;;;3.57;;
7150;SDS011;3617;48.836;9.172;2024-01-10T08:39:29;3.63;;;3.30;;
7150;SDS011;3617;48.836;9.172;2024-01-10T08:41:56;8.47;;;4.20;;
7150;SDS011;3617;48.836;9.172;2024-01-10T08:44:22;4.37;;;3.83;;
7150;SDS011;3617;48.836;9.172;2024-01-10T08:46:48;15.47;;;4.77;;
7150;SDS011;3617;48.836;9.172;2024-01-10T08:49:16;8.03;;;4.20;;
7150;SDS011;3617;48.836;9.172;2024-01-10T08:51:42;7.77;;;4.50;;
7150;SDS011;3617;48.836;9.172;2024-01-10T08:54:08;10.10;;;3.97;;
7150;SDS011;3617;48.836;9.172;2024-01-10T08:56:35;10.83;;;4.90;;
7150;SDS011;3617;48.836;9.172;2024-01-10T08:59:01;8.83;;;5.10;;
7150;SDS011;3617;48.836;9.172;2024-01-10T09:01:27;12.50;;;5.77;;
7150;SDS011;3617;48.836;9.172;2024-01-10T09:03:54;7.70;;;4.33;;
7150;SDS011;3617;48.836;9.172;2024-01-10T09:06:20;6.23;;;4.23;;
7150;SDS011;3617;48.836;9.172;2024-01-10T09:08:46;14.33;;;6.10;;
7150;SDS011;3617;48.836;9.172;2024-01-10T09:11:12;9.63;;;5.17;;
7150;SDS011;3617;48.836;9.172;2024-01-10T09:13:37;14.67;;;5.53;;
7150;SDS011;3617;48.836;9.172;2024-01-10T09:16:05;11.43;;;5.47;;
7150;SDS011;3617;48.836;9.172;2024-01-10T09:18:31;13.13;;;5.83;;
7150;SDS011;3617;48.836;9.172;2024-01-10T09:20:57;10.63;;;5.23;;
7150;SDS011;3617;48.836;9.172;2024-01-10T09:23:23;12.20;;;5.70;;
7150;SDS011;3617;48.836;9.172;2024-01-10T09:25:49;9.97;;;5.00;;
7150;SDS011;3617;48.836;9.172;2024-01-10T09:28:16;7.83;;;4.43;;
7150;SDS011;3617;48.836;9.172;2024-01-10T09:30:42;10.20;;;5.77;;
7150;SDS011;3617;48.836;9.172;2024-01-10T09:33:07;11.60;;;5.73;;
7150;SDS011;3617;48.836;9.172;2024-01-10T09:35:34;10.07;;;5.30;;
7150;SDS011;3617;48.836;9.172;2024-01-10T09:38:00;10.30;;;5.70;;
7150;SDS011;3617;48.836;9.172;2024-01-10T09:40:26;15.20;;;6.03;;
7150;SDS011;3617;48.836;9.172;2024-01-10T09:42:54;12.47;;;6.23;;
7150;SDS011;3617;48.836;9.172;2024-01-10T09:45:20;12.17;;;5.80;;
7150;SDS011;3617;48.836;9.172;2024-01-10T09:47:48;9.97;;;6.07;;
7150;SDS011;3617;48.836;9.172;2024-01-10T09:50:14;12.10;;;6.33;;
7150;SDS011;3617;48.836;9.172;2024-01-10T09:52:50;14.53;;;6.60;;
7150;SDS011;3617;48.836;9.172;2024-01-10T09:55:17;12.17;;;6.73;;
7150;SDS011;3617;48.836;9.172;2024-01-10T09:57:45;13.20;;;6.43;;
7150;SDS011;3617;48.836;9.172;2024-01-10T10:00:11;12.20;;;6.30;;
7150;SDS011;3617;48.836;9.172;2024-01-10T10:02:40;12.47;;;6.90;;
7150;SDS011;3617;48.836;9.172;2024-01-10T10:07:49;14.67;;;6.23;;
7150;SDS011;3617;48.836;9.172;2024-01-10T10:10:15;12.23;;;6.53;;
7150;SDS011;3617;48.836;9.172;2024-01-10T10:12:45;17.53;;;6.83;;
7150;SDS011;3617;48.836;9.172;2024-01-10T10:15:12;14.47;;;7.40;;
7150;SDS011;3617;48.836;9.172;2024-01-10T10:17:38;13.20;;;6.57;;
7150;SDS011;3617;48.836;9.172;2024-01-10T10:20:11;15.70;;;6.57;;
7150;SDS011;3617;48.836;9.172;2024-01-10T10:22:38;15.70;;;6.40;;
7150;SDS011;3617;48.836;9.172;2024-01-10T10:25:04;14.17;;;7.00;;
7150;SDS011;3617;48.836;9.172;2024-01-10T10:27:30;12.47;;;7.60;;
7150;SDS011;3617;48.836;9.172;2024-01-10T10:29:57;14.17;;;7.20;;
7150;SDS011;3617;48.836;9.172;2024-01-10T10:32:23;14.70;;;7.60;;
7150;SDS011;3617;48.836;9.172;2024-01-10T10:34:50;17.00;;;8.03;;
7150;SDS011;3617;48.836;9.172;2024-01-10T10:37:16;15.07;;;7.93;;
7150;SDS011;3617;48.836;9.172;2024-01-10T10:39:42;17.17;;;8.53;;
7150;SDS011;3617;48.836;9.172;2024-01-10T10:42:07;14.23;;;7.60;;
7150;SDS011;3617;48.836;9.172;2024-01-10T10:44:35;14.13;;;7.47;;
7150;SDS011;3617;48.836;9.172;2024-01-10T10:47:04;13.37;;;7.37;;
7150;SDS011;3617;48.836;9.172;2024-01-10T10:49:31;14.27;;;7.97;;
7150;SDS011;3617;48.836;9.172;2024-01-10T10:51:58;14.83;;;7.73;;
7150;SDS011;3617;48.836;9.172;2024-01-10T10:54:26;12.17;;;7.33;;
7150;SDS011;3617;48.836;9.172;2024-01-10T10:56:55;13.67;;;7.97;;
7150;SDS011;3617;48.836;9.172;2024-01-10T10:59:24;17.03;;;7.73;;
7150;SDS011;3617;48.836;9.172;2024-01-10T11:01:51;14.50;;;7.70;;
7150;SDS011;3617;48.836;9.172;2024-01-10T11:04:17;12.70;;;7.47;;
7150;SDS011;3617;48.836;9.172;2024-01-10T11:06:44;15.87;;;7.83;;
7150;SDS011;3617;48.836;9.172;2024-01-10T11:09:10;16.13;;;8.10;;
7150;SDS011;3617;48.836;9.172;2024-01-10T11:11:50;11.03;;;6.90;;
7150;SDS011;3617;48.836;9.172;2024-01-10T11:17:14;15.30;;;7.47;;
7150;SDS011;3617;48.836;9.172;2024-01-10T11:19:48;14.10;;;7.60;;
7150;SDS011;3617;48.836;9.172;2024-01-10T11:24:49;20.47;;;8.90;;
7150;SDS011;3617;48.836;9.172;2024-01-10T11:27:15;12.43;;;7.20;;
7150;SDS011;3617;48.836;9.172;2024-01-10T11:29:41;14.23;;;7.87;;
7150;SDS011;3617;48.836;9.172;2024-01-10T11:32:14;17.07;;;7.87;;
7150;SDS011;3617;48.836;9.172;2024-01-10T11:34:48;14.07;;;7.03;;
7150;SDS011;3617;48.836;9.172;2024-01-10T11:37:14;17.27;;;8.10;;
7150;SDS011;3617;48.836;9.172;2024-01-10T11:39:43;14.50;;;7.23;;
7150;SDS011;3617;48.836;9.172;2024-01-10T11:42:10;13.83;;;6.97;;
7150;SDS011;3617;48.836;9.172;2024-01-10T11:44:46;13.37;;;7.30;;
7150;SDS011;3617;48.836;9.172;2024-01-10T11:47:16;12.60;;;5.97;;
7150;SDS011;3617;48.836;9.172;2024-01-10T11:49:55;14.00;;;6.97;;
7150;SDS011;3617;48.836;9.172;2024-01-10T11:52:22;12.10;;;7.30;;
7150;SDS011;3617;48.836;9.172;2024-01-10T11:54:49;11.13;;;7.03;;
7150;SDS011;3617;48.836;9.172;2024-01-10T11:59:45;14.07;;;7.30;;
7150;SDS011;3617;48.836;9.172;2024-01-10T12:02:11;10.10;;;4.90;;
7150;SDS011;3617;48.836;9.172;2024-01-10T12:04:37;19.23;;;7.67;;
7150;SDS011;3617;48.836;9.172;2024-01-10T12:07:05;14.10;;;7.07;;
7150;SDS011;3617;48.836;9.172;2024-01-10T12:09:32;14.67;;;7.03;;
7150;SDS011;3617;48.836;9.172;2024-01-10T12:11:59;16.00;;;7.60;;
7150;SDS011;3617;48.836;9.172;2024-01-10T12:14:25;14.73;;;7.73;;
7150;SDS011;3617;48.836;9.172;2024-01-10T12:16:51;11.40;;;6.37;;
7150;SDS011;3617;48.836;9.172;2024-01-10T12:19:18;18.03;;;8.10;;
7150;SDS011;3617;48.836;9.172;2024-01-10T12:21:44;16.33;;;7.90;;
7150;SDS011;3617;48.836;9.172;2024-01-10T12:24:10;16.30;;;8.00;;
7150;SDS011;3617;48.836;9.172;2024-01-10T12:26:42;14.70;;;6.33;;
7150;SDS011;3617;48.836;9.172;2024-01-10T12:29:08;14.50;;;8.07;;
7150;SDS011;3617;48.836;9.172;2024-01-10T12:31:35;13.97;;;7.33;;
7150;SDS011;3617;48.836;9.172;2024-01-10T12:34:00;16.23;;;8.10;;
7150;SDS011;3617;48.836;9.172;2024-01-10T12:36:27;14.03;;;6.90;;
7150;SDS011;3617;48.836;9.172;2024-01-10T12:38:53;13.50;;;7.17;;
7150;SDS011;3617;48.836;9.172;2024-01-10T12:41:19;19.20;;;7.97;;
7150;SDS011;3617;48.836;9.172;2024-01-10T12:43:49;15.23;;;6.97;;
7150;SDS011;3617;48.836;9.172;2024-01-10T12:46:15;17.13;;;7.83;;
7150;SDS011;3617;48.836;9.172;2024-01-10T12:48:41;15.13;;;8.10;;
7150;SDS011;3617;48.836;9.172;2024-01-10T12:51:08;16.23;;;8.07;;
7150;SDS011;3617;48.836;9.172;2024-01-10T12:53:34;14.17;;;7.43;;
7150;SDS011;3617;48.836;9.172;2024-01-10T12:56:01;16.57;;;8.20;;
7150;SDS011;3617;48.836;9.172;2024-01-10T12:58:27;22.47;;;8.73;;
7150;SDS011;3617;48.836;9.172;2024-01-10T13:00:54;15.97;;;7.63;;
7150;SDS011;3617;48.836;9.172;2024-01-10T13:03:20;19.80;;;8.93;;
7150;SDS011;3617;48.836;9.172;2024-01-10T13:05:46;15.63;;;7.80;;
7150;SDS011;3617;48.836;9.172;2024-01-10T13:08:12;16.10;;;8.70;;
7150;SDS011;3617;48.836;9.172;2024-01-10T13:10:39;15.00;;;7.83;;
7150;SDS011;3617;48.836;9.172;2024-01-10T13:13:05;15.77;;;8.53;;
7150;SDS011;3617;48.836;9.172;2024-01-10T13:15:31;13.77;;;8.07;;
7150;SDS011;3617;48.836;9.172;2024-01-10T13:17:57;18.60;;;8.80;;
7150;SDS011;3617;48.836;9.172;2024-01-10T13:20:23;18.73;;;8.33;;
7150;SDS011;3617;48.836;9.172;2024-01-10T13:22:49;15.30;;;8.90;;
7150;SDS011;3617;48.836;9.172;2024-01-10T13:25:15;17.00;;;9.03;;
7150;SDS011;3617;48.836;9.172;2024-01-10T13:27:42;19.07;;;9.40;;
7150;SDS011;3617;48.836;9.172;2024-01-10T13:30:08;16.90;;;8.87;;
7150;SDS011;3617;48.836;9.172;2024-01-10T13:32:36;16.77;;;8.17;;
7150;SDS011;3617;48.836;9.172;2024-01-10T13:35:02;17.13;;;8.80;;
7150;SDS011;3617;48.836;9.172;2024-01-10T13:37:29;16.20;;;8.13;;
7150;SDS011;3617;48.836;9.172;2024-01-10T13:39:56;15.20;;;7.07;;
7150;SDS011;3617;48.836;9.172;2024-01-10T13:42:22;24.37;;;7.87;;
7150;SDS011;3617;48.836;9.172;2024-01-10T13:44:49;14.00;;;6.80;;
7150;SDS011;3617;48.836;9.172;2024-01-10T13:47:15;12.93;;;6.90;;
7150;SDS011;3617;48.836;9.172;2024-01-10T13:49:43;14.70;;;7.23;;
7150;SDS011;3617;48.836;9.172;2024-01-10T13:52:09;14.77;;;7.27;;
7150;SDS011;3617;48.836;9.172;2024-01-10T13:54:35;8.80;;;5.87;;
7150;SDS011;3617;48.836;9.172;2024-01-10T13:57:01;12.20;;;6.83;;
7150;SDS011;3617;48.836;9.172;2024-01-10T13:59:28;13.80;;;6.67;;
7150;SDS011;3617;48.836;9.172;2024-01-10T14:01:54;18.33;;;6.73;;
7150;SDS011;3617;48.836;9.172;2024-01-10T14:04:20;11.73;;;5.53;;
7150;SDS011;3617;48.836;9.172;2024-01-10T14:06:49;10.40;;;5.70;;
7150;SDS011;3617;48.836;9.172;2024-01-10T14:09:15;11.80;;;6.27;;
7150;SDS011;3617;48.836;9.172;2024-01-10T14:11:42;16.93;;;7.40;;
7150;SDS011;3617;48.836;9.172;2024-01-10T14:14:09;10.60;;;5.53;;
7150;SDS011;3617;48.836;9.172;2024-01-10T14:16:35;14.97;;;7.37;;
7150;SDS011;3617;48.836;9.172;2024-01-10T14:19:02;13.40;;;6.43;;
7150;SDS011;3617;48.836;9.172;2024-01-10T14:21:28;10.27;;;6.13;;
7150;SDS011;3617;48.836;9.172;2024-01-10T14:23:56;14.03;;;6.13;;
7150;SDS011;3617;48.836;9.172;2024-01-10T14:26:22;12.73;;;7.20;;
7150;SDS011;3617;48.836;9.172;2024-01-10T14:28:49;12.13;;;7.00;;
7150;SDS011;3617;48.836;9.172;2024-01-10T14:31:17;17.97;;;7.20;;
7150;SDS011;3617;48.836;9.172;2024-01-10T14:33:44;10.67;;;5.60;;
7150;SDS011;3617;48.836;9.172;2024-01-10T14:36:10;12.37;;;7.27;;
7150;SDS011;3617;48.836;9.172;2024-01-10T14:38:36;11.10;;;6.27;;
7150;SDS011;3617;48.836;9.172;2024-01-10T14:41:03;9.80;;;6.23;;
7150;SDS011;3617;48.836;9.172;2024-01-10T14:43:29;6.63;;;5.17;;
7150;SDS011;3617;48.836;9.172;2024-01-10T14:45:55;11.20;;;6.47;;
7150;SDS011;3617;48.836;9.172;2024-01-10T14:48:21;13.37;;;6.07;;
7150;SDS011;3617;48.836;9.172;2024-01-10T14:50:47;11.13;;;6.63;;
7150;SDS011;3617;48.836;9.172;2024-01-10T14:53:13;9.67;;;5.33;;
7150;SDS011;3617;48.836;9.172;2024-01-10T14:55:39;10.03;;;5.67;;
7150;SDS011;3617;48.836;9.172;2024-01-10T14:58:05;10.10;;;5.27;;
7150;SDS011;3617;48.836;9.172;2024-01-10T15:00:32;9.37;;;5.67;;
7150;SDS011;3617;48.836;9.172;2024-01-10T15:02:58;13.87;;;6.90;;
7150;SDS011;3617;48.836;9.172;2024-01-10T15:05:23;9.83;;;5.53;;
7150;SDS011;3617;48.836;9.172;2024-01-10T15:07:51;11.13;;;5.73;;
7150;SDS011;3617;48.836;9.172;2024-01-10T15:10:17;15.50;;;7.00;;
7150;SDS011;3617;48.836;9.172;2024-01-10T15:12:43;11.50;;;6.17;;
7150;SDS011;3617;48.836;9.172;2024-01-10T15:15:09;14.40;;;6.23;;